Time;durP1;ratioP1;P1;durP2;ratioP2;P2;SDS_P1;SDS_P2;PMS_P1;PMS_P2;Temp;Humidity;BMP_temperature;BMP_pressure;BME280_temperature;BME280_humidity;BME280_pressure;Samples;Min_cycle;Max_cycle;Signal;HPM_P1;HPM_P2
2022/10/05 00:01:44;;;;;;;;;;;;;;;;;;5053555;28;19974;-56
2022/10/05 00:04:10;;;;;;;;;;;;;;;;;;5054087;28;19931;-57
2022/10/05 00:06:36;;;;;;;;;;;;;;;;;;5050168;28;20466;-57
2022/10/05 00:09:02;;;;;;;;;;;;;;;;;;5054599;28;19979;-56
2022/10/05 00:11:28;;;;;;;;;;;;;;;;;;5054242;28;19958;-56
2022/10/05 00:13:54;;;;;;;;;;;;;;;;;;5055419;28;19928;-57
2022/10/05 00:16:20;;;;;;;;;;;;;;;;;;5052592;28;19928;-56
2022/10/05 00:18:46;;;;;;;;;;;;;;;;;;5051713;28;19931;-56
2022/10/05 00:21:12;;;;;;;;;;;;;;;;;;5055342;28;19924;-56
2022/10/05 00:23:38;;;;;;;;;;;;;;;;;;5051470;28;19974;-56
2022/10/05 00:26:04;;;;;;;;;;;;;;;;;;5053126;28;19951;-56
2022/10/05 00:28:30;;;;;;;;;;;;;;;;;;5051101;28;20383;-56
2022/10/05 00:30:56;;;;;;;;;;;;;;;;;;5055485;28;19931;-57
2022/10/05 00:33:22;;;;;;;;;;;;;;;;;;5052002;28;19921;-56
2022/10/05 00:35:47;;;;;;;;;;;;;;;;;;5052106;28;19948;-57
2022/10/05 00:38:13;;;;;;;;;;;;;;;;;;5035507;28;20375;-57
2022/10/05 00:40:40;;;;;;;;;;;;;;;;;;5053018;28;19927;-56
2022/10/05 00:43:06;;;;;;;;;;;;;;;;;;5057405;28;19928;-57
2022/10/05 00:45:32;;;;;;;;;;;;;;;;;;5050864;28;19925;-56
2022/10/05 00:47:57;;;;;;;;;;;;;;;;;;5051961;28;20282;-56
2022/10/05 00:50:24;;;;;;;;;;;;;;;;;;5051950;28;19967;-56
2022/10/05 00:52:50;;;;;;;;;;;;;;;;;;5051878;28;20108;-56
2022/10/05 00:55:16;;;;;;;;;;;;;;;;;;5052541;28;20075;-55
2022/10/05 00:57:41;;;;;;;;;;;;;;;;;;5051272;28;19928;-56
2022/10/05 01:00:07;;;;;;;;;;;;;;;;;;5052508;28;20015;-56
2022/10/05 01:02:33;;;;;;;;;;;;;;;;;;5053402;28;20012;-57
2022/10/05 01:04:59;;;;;;;;;;;;;;;;;;5055383;28;19946;-56
2022/10/05 01:07:25;;;;;;;;;;;;;;;;;;5050931;28;20149;-56
2022/10/05 01:09:51;;;;;;;;;;;;;;;;;;5033439;28;19920;-56
2022/10/05 01:12:17;;;;;;;;;;;;;;;;;;5052532;28;19924;-56
2022/10/05 01:14:43;;;;;;;;;;;;;;;;;;5050766;28;19920;-56
2022/10/05 01:17:09;;;;;;;;;;;;;;;;;;5052986;28;19932;-56
2022/10/05 01:19:35;;;;;;;;;;;;;;;;;;5055107;28;20412;-56
2022/10/05 01:22:00;;;;;;;;;;;;;;;;;;5051071;28;20279;-57
2022/10/05 01:24:26;;;;;;;;;;;;;;;;;;5054099;28;19956;-57
2022/10/05 01:26:52;;;;;;;;;;;;;;;;;;5051678;28;20013;-56
2022/10/05 01:29:18;;;;;;;;;;;;;;;;;;5051435;28;20410;-56
2022/10/05 01:31:44;;;;;;;;;;;;;;;;;;5051212;28;20419;-57
2022/10/05 01:34:10;;;;;;;;;;;;;;;;;;5056797;28;19931;-56
2022/10/05 01:36:36;;;;;;;;;;;;;;;;;;5053814;28;19921;-57
2022/10/05 01:39:02;;;;;;;;;;;;;;;;;;5056626;28;20005;-56
2022/10/05 01:41:28;;;;;;;;;;;;;;;;;;5055585;28;19931;-56
2022/10/05 01:43:54;;;;;;;;;;;;;;;;;;5055709;28;19921;-56
2022/10/05 01:46:19;;;;;;;;;;;;;;;;;;5055891;28;20362;-56
2022/10/05 01:48:45;;;;;;;;;;;;;;;;;;5055267;28;20023;-56
2022/10/05 01:51:11;;;;;;;;;;;;;;;;;;5056015;28;19924;-56
2022/10/05 01:53:37;;;;;;;;;;;;;;;;;;5057049;28;20409;-56
2022/10/05 01:56:03;;;;;;;;;;;;;;;;;;5056722;28;20012;-56
2022/10/05 01:58:29;;;;;;;;;;;;;;;;;;5052987;28;20307;-56
2022/10/05 02:00:55;;;;;;;;;;;;;;;;;;5057988;28;21522;-56
2022/10/05 02:03:21;;;;;;;;;;;;;;;;;;5054857;28;19935;-56
2022/10/05 02:05:47;;;;;;;;;;;;;;;;;;5054811;28;19932;-56
2022/10/05 02:08:13;;;;;;;;;;;;;;;;;;5056397;28;19920;-57
2022/10/05 02:10:39;;;;;;;;;;;;;;;;;;5053231;28;20063;-56
2022/10/05 02:13:04;;;;;;;;;;;;;;;;;;5056262;28;19921;-56
2022/10/05 02:15:30;;;;;;;;;;;;;;;;;;5057442;28;19932;-57
2022/10/05 02:17:56;;;;;;;;;;;;;;;;;;5057524;28;20276;-56
2022/10/05 02:20:22;;;;;;;;;;;;;;;;;;5063809;28;19920;-56
2022/10/05 02:22:48;;;;;;;;;;;;;;;;;;5056051;28;19925;-56
2022/10/05 02:25:14;;;;;;;;;;;;;;;;;;5057071;28;19931;-56
2022/10/05 02:27:40;;;;;;;;;;;;;;;;;;5057909;28;19925;-56
2022/10/05 02:30:06;;;;;;;;;;;;;;;;;;5058513;28;20348;-56
2022/10/05 02:32:32;;;;;;;;;;;;;;;;;;5052860;28;19971;-56
2022/10/05 02:34:58;;;;;;;;;;;;;;;;;;5055240;28;19921;-56
2022/10/05 02:37:24;;;;;;;;;;;;;;;;;;5054633;28;20105;-57
2022/10/05 02:39:50;;;;;;;;;;;;;;;;;;5053309;28;19925;-56
2022/10/05 02:42:15;;;;;;;;;;;;;;;;;;5055668;28;19920;-56
2022/10/05 02:44:41;;;;;;;;;;;;;;;;;;5052375;28;19925;-56
2022/10/05 02:47:07;;;;;;;;;;;;;;;;;;5036055;28;19925;-57
2022/10/05 02:49:33;;;;;;;;;;;;;;;;;;5055746;28;19966;-56
2022/10/05 02:51:59;;;;;;;;;;;;;;;;;;5057968;28;19927;-56
2022/10/05 02:54:25;;;;;;;;;;;;;;;;;;5064418;28;19924;-56
2022/10/05 02:56:51;;;;;;;;;;;;;;;;;;5055821;28;19921;-56
2022/10/05 02:59:17;;;;;;;;;;;;;;;;;;5061143;28;19932;-56
2022/10/05 03:01:43;;;;;;;;;;;;;;;;;;5047790;28;19921;-56
2022/10/05 03:04:09;;;;;;;;;;;;;;;;;;5058795;28;20333;-56
2022/10/05 03:06:34;;;;;;;;;;;;;;;;;;5057526;28;19931;-56
2022/10/05 03:09:00;;;;;;;;;;;;;;;;;;5055828;28;19967;-56
2022/10/05 03:11:26;;;;;;;;;;;;;;;;;;5056970;28;19944;-56
2022/10/05 03:13:52;;;;;;;;;;;;;;;;;;5058713;28;19921;-57
2022/10/05 03:16:18;;;;;;;;;;;;;;;;;;5058766;28;19925;-56
2022/10/05 03:18:44;;;;;;;;;;;;;;;;;;5054534;28;19971;-56
2022/10/05 03:21:10;;;;;;;;;;;;;;;;;;5048125;28;19924;-57
2022/10/05 03:23:36;;;;;;;;;;;;;;;;;;5056257;28;20038;-57
2022/10/05 03:26:02;;;;;;;;;;;;;;;;;;5058712;28;19984;-57
2022/10/05 03:28:28;;;;;;;;;;;;;;;;;;5050888;28;19925;-56
2022/10/05 03:30:54;;;;;;;;;;;;;;;;;;5056174;28;19920;-57
2022/10/05 03:33:20;;;;;;;;;;;;;;;;;;5057705;28;19924;-57
2022/10/05 03:35:46;;;;;;;;;;;;;;;;;;5054078;28;20338;-56
2022/10/05 03:38:12;;;;;;;;;;;;;;;;;;5053951;28;19931;-56
2022/10/05 03:40:38;;;;;;;;;;;;;;;;;;5052402;28;19925;-57
2022/10/05 03:43:04;;;;;;;;;;;;;;;;;;5053621;28;19940;-56
2022/10/05 03:45:30;;;;;;;;;;;;;;;;;;5052343;28;20307;-56
2022/10/05 03:47:55;;;;;;;;;;;;;;;;;;5053791;28;19928;-56
2022/10/05 03:50:21;;;;;;;;;;;;;;;;;;5057186;28;19966;-56
2022/10/05 03:52:47;;;;;;;;;;;;;;;;;;5056603;28;20401;-57
2022/10/05 03:55:13;;;;;;;;;;;;;;;;;;5053481;28;20027;-56
2022/10/05 03:57:39;;;;;;;;;;;;;;;;;;5055449;28;20016;-56
2022/10/05 04:00:05;;;;;;;;;;;;;;;;;;5055483;28;20410;-57
2022/10/05 04:02:31;;;;;;;;;;;;;;;;;;5057836;28;19924;-56
2022/10/05 04:04:57;;;;;;;;;;;;;;;;;;5056437;28;19943;-56
2022/10/05 04:07:23;;;;;;;;;;;;;;;;;;5059697;28;19928;-56
2022/10/05 04:09:49;;;;;;;;;;;;;;;;;;5055879;28;19928;-56
2022/10/05 04:12:15;;;;;;;;;;;;;;;;;;5055908;28;20698;-56
2022/10/05 04:14:40;;;;;;;;;;;;;;;;;;5055418;28;19960;-56
2022/10/05 04:17:06;;;;;;;;;;;;;;;;;;5052219;28;20243;-56
2022/10/05 04:19:32;;;;;;;;;;;;;;;;;;5056186;28;19948;-56
2022/10/05 04:21:58;;;;;;;;;;;;;;;;;;5057003;28;19929;-56
2022/10/05 04:24:24;;;;;;;;;;;;;;;;;;5052228;28;19921;-57
2022/10/05 04:26:50;;;;;;;;;;;;;;;;;;5057676;28;19924;-57
2022/10/05 04:29:16;;;;;;;;;;;;;;;;;;5056105;28;19931;-56
2022/10/05 04:31:42;;;;;;;;;;;;;;;;;;5039251;28;19995;-57
2022/10/05 04:34:08;;;;;;;;;;;;;;;;;;5036887;28;20613;-57
2022/10/05 04:36:34;;;;;;;;;;;;;;;;;;5053728;28;19983;-57
2022/10/05 04:39:00;;;;;;;;;;;;;;;;;;5057722;28;19924;-57
2022/10/05 04:41:25;;;;;;;;;;;;;;;;;;5059139;28;20018;-57
2022/10/05 04:43:51;;;;;;;;;;;;;;;;;;5058064;28;19928;-56
2022/10/05 04:46:17;;;;;;;;;;;;;;;;;;5053195;28;19979;-56
2022/10/05 04:48:43;;;;;;;;;;;;;;;;;;5054795;28;20007;-57
2022/10/05 04:51:09;;;;;;;;;;;;;;;;;;5055371;28;19967;-56
2022/10/05 04:53:35;;;;;;;;;;;;;;;;;;5052302;28;19931;-57
2022/10/05 04:56:01;;;;;;;;;;;;;;;;;;5052021;28;19928;-56
2022/10/05 04:58:27;;;;;;;;;;;;;;;;;;5053212;28;19966;-56
2022/10/05 05:00:53;;;;;;;;;;;;;;;;;;5051142;28;19928;-56
2022/10/05 05:03:19;;;;;;;;;;;;;;;;;;5053103;28;19935;-56
2022/10/05 05:05:44;;;;;;;;;;;;;;;;;;5052894;28;19925;-56
2022/10/05 05:08:10;;;;;;;;;;;;;;;;;;5051321;28;19924;-56
2022/10/05 05:10:38;;;;;;;;;;;;;;;;;;5052763;28;19967;-56
2022/10/05 05:13:04;;;;;;;;;;;;;;;;;;5055129;28;19967;-57
2022/10/05 05:15:30;;;;;;;;;;;;;;;;;;5052925;28;20681;-56
2022/10/05 05:17:56;;;;;;;;;;;;;;;;;;5056963;28;19925;-55
2022/10/05 05:20:22;;;;;;;;;;;;;;;;;;5053729;28;19979;-56
2022/10/05 05:22:47;;;;;;;;;;;;;;;;;;5052897;28;19925;-56
2022/10/05 05:25:14;;;;;;;;;;;;;;;;;;5053893;28;19927;-56
2022/10/05 05:27:40;;;;;;;;;;;;;;;;;;5053725;28;19999;-56
2022/10/05 05:30:06;;;;;;;;;;;;;;;;;;5052248;28;19999;-56
2022/10/05 05:32:32;;;;;;;;;;;;;;;;;;5052966;28;19924;-56
2022/10/05 05:34:58;;;;;;;;;;;;;;;;;;5032842;28;20574;-56
2022/10/05 05:37:24;;;;;;;;;;;;;;;;;;5055396;28;20570;-56
2022/10/05 05:39:50;;;;;;;;;;;;;;;;;;5056518;28;19927;-56
2022/10/05 05:42:16;;;;;;;;;;;;;;;;;;5052724;28;19924;-56
2022/10/05 05:44:42;;;;;;;;;;;;;;;;;;5055009;28;19925;-56
2022/10/05 05:47:08;;;;;;;;;;;;;;;;;;5055334;28;20048;-56
2022/10/05 05:49:34;;;;;;;;;;;;;;;;;;5055738;28;20024;-56
2022/10/05 05:52:00;;;;;;;;;;;;;;;;;;5051629;28;19928;-57
2022/10/05 05:54:26;;;;;;;;;;;;;;;;;;5057885;28;19943;-56
2022/10/05 05:56:52;;;;;;;;;;;;;;;;;;5055557;28;19924;-56
2022/10/05 05:59:18;;;;;;;;;;;;;;;;;;5050332;28;19952;-57
2022/10/05 06:01:44;;;;;;;;;;;;;;;;;;5057580;28;20371;-56
2022/10/05 06:04:10;;;;;;;;;;;;;;;;;;5051589;28;19932;-56
2022/10/05 06:06:36;;;;;;;;;;;;;;;;;;5053683;28;19920;-56
2022/10/05 06:09:02;;;;;;;;;;;;;;;;;;5058163;28;20298;-56
2022/10/05 06:11:28;;;;;;;;;;;;;;;;;;5055065;28;19971;-56
2022/10/05 06:13:54;;;;;;;;;;;;;;;;;;5055244;28;19925;-56
2022/10/05 06:16:20;;;;;;;;;;;;;;;;;;5054585;28;20646;-56
2022/10/05 06:18:46;;;;;;;;;;;;;;;;;;5054972;28;19924;-56
2022/10/05 06:21:12;;;;;;;;;;;;;;;;;;5036029;28;19927;-56
2022/10/05 06:23:38;;;;;;;;;;;;;;;;;;5055888;28;20070;-56
2022/10/05 06:26:04;;;;;;;;;;;;;;;;;;5057366;28;20385;-57
2022/10/05 06:28:30;;;;;;;;;;;;;;;;;;5061960;28;19931;-56
2022/10/05 06:30:56;;;;;;;;;;;;;;;;;;5056515;28;19951;-56
2022/10/05 06:33:22;;;;;;;;;;;;;;;;;;5037823;28;20006;-56
2022/10/05 06:35:48;;;;;;;;;;;;;;;;;;5059164;28;19920;-55
2022/10/05 06:38:14;;;;;;;;;;;;;;;;;;5054556;28;19921;-56
2022/10/05 06:40:40;;;;;;;;;;;;;;;;;;5055051;28;19990;-56
2022/10/05 06:43:06;;;;;;;;;;;;;;;;;;5056378;28;19975;-56
2022/10/05 06:45:32;;;;;;;;;;;;;;;;;;5051738;28;19924;-55
2022/10/05 06:47:58;;;;;;;;;;;;;;;;;;5064802;28;19926;-56
2022/10/05 06:50:24;;;;;;;;;;;;;;;;;;5048030;28;19920;-56
2022/10/05 06:52:50;;;;;;;;;;;;;;;;;;5047344;28;19921;-57
2022/10/05 06:55:15;;;;;;;;;;;;;;;;;;5047991;28;19932;-55
2022/10/05 06:57:41;;;;;;;;;;;;;;;;;;5047934;28;19942;-56
2022/10/05 07:00:07;;;;;;;;;;;;;;;;;;5047365;28;20400;-56
2022/10/05 07:02:33;;;;;;;;;;;;;;;;;;5047466;28;19927;-56
2022/10/05 07:04:59;;;;;;;;;;;;;;;;;;5047551;28;19925;-56
2022/10/05 07:07:25;;;;;;;;;;;;;;;;;;5047326;28;20380;-56
2022/10/05 07:09:51;;;;;;;;;;;;;;;;;;5047672;28;19928;-56
2022/10/05 07:12:17;;;;;;;;;;;;;;;;;;5047733;28;19925;-56
2022/10/05 07:14:43;;;;;;;;;;;;;;;;;;5047395;28;19920;-56
2022/10/05 07:17:09;;;;;;;;;;;;;;;;;;5047476;28;20272;-56
2022/10/05 07:19:35;;;;;;;;;;;;;;;;;;5047159;28;19974;-57
2022/10/05 07:22:00;;;;;;;;;;;;;;;;;;5046921;28;20287;-56
2022/10/05 07:24:28;;;;;;;;;;;;;;;;;;5054466;28;19972;-56
2022/10/05 07:26:53;;;;;;;;;;;;;;;;;;5055083;28;20298;-56
2022/10/05 07:29:19;;;;;;;;;;;;;;;;;;5050339;28;20015;-53
2022/10/05 07:31:46;;;;;;;;;;;;;;;;;;5047964;28;19929;-56
2022/10/05 07:34:11;;;;;;;;;;;;;;;;;;5062600;28;19924;-55
2022/10/05 07:39:22;;;;;;;;;;;;;;;;;;5047433;28;20019;-55
2022/10/05 07:41:49;;;;;;;;;;;;;;;;;;5046350;28;20011;-61
2022/10/05 07:44:15;;;;;;;;;;;;;;;;;;5047140;28;19928;-54
2022/10/05 07:46:42;;;;;;;;;;;;;;;;;;5046912;28;20411;-56
2022/10/05 07:49:08;;;;;;;;;;;;;;;;;;5064129;28;20026;-56
2022/10/05 07:51:34;;;;;;;;;;;;;;;;;;5052093;28;20007;-57
2022/10/05 07:54:00;;;;;;;;;;;;;;;;;;5049819;28;20285;-56
2022/10/05 07:56:26;;;;;;;;;;;;;;;;;;5065924;28;19932;-56
2022/10/05 07:58:52;;;;;;;;;;;;;;;;;;5066705;28;19929;-56
2022/10/05 08:01:18;;;;;;;;;;;;;;;;;;5061031;28;20368;-56
2022/10/05 08:03:44;;;;;;;;;;;;;;;;;;5059123;28;20399;-57
2022/10/05 08:06:10;;;;;;;;;;;;;;;;;;5066795;28;19924;-56
2022/10/05 08:08:36;;;;;;;;;;;;;;;;;;5064952;28;19924;-56
2022/10/05 08:11:02;;;;;;;;;;;;;;;;;;5065152;28;20480;-56
2022/10/05 08:13:28;;;;;;;;;;;;;;;;;;5065025;28;19946;-56
2022/10/05 08:15:54;;;;;;;;;;;;;;;;;;5060147;28;19920;-56
2022/10/05 08:18:20;;;;;;;;;;;;;;;;;;5064048;28;19955;-57
2022/10/05 08:20:46;;;;;;;;;;;;;;;;;;5065166;28;19924;-56
2022/10/05 08:23:11;;;;;;;;;;;;;;;;;;5065586;28;20030;-56
2022/10/05 08:25:38;;;;;;;;;;;;;;;;;;5066052;28;19931;-56
2022/10/05 08:28:04;;;;;;;;;;;;;;;;;;5065950;28;19928;-57
2022/10/05 08:30:30;;;;;;;;;;;;;;;;;;5065491;28;19920;-56
2022/10/05 08:32:56;;;;;;;;;;;;;;;;;;5064820;28;20020;-58
2022/10/05 08:35:23;;;;;;;;;;;;;;;;;;5066012;28;19926;-57
2022/10/05 08:37:48;;;;;;;;;;;;;;;;;;5047177;28;19928;-58
2022/10/05 08:40:14;;;;;;;;;;;;;;;;;;5063400;28;19924;-58
2022/10/05 08:42:40;;;;;;;;;;;;;;;;;;5060472;28;20396;-57
2022/10/05 08:45:06;;;;;;;;;;;;;;;;;;5062485;28;20386;-58
2022/10/05 08:47:33;;;;;;;;;;;;;;;;;;5062082;28;19931;-57
2022/10/05 08:49:59;;;;;;;;;;;;;;;;;;5063759;28;19928;-57
2022/10/05 08:52:27;;;;;;;;;;;;;;;;;;5060699;28;19924;-56
2022/10/05 08:54:53;;;;;;;;;;;;;;;;;;5060560;28;20350;-58
2022/10/05 08:57:19;;;;;;;;;;;;;;;;;;5045741;28;19924;-58
2022/10/05 08:59:45;;;;;;;;;;;;;;;;;;5064089;28;19924;-58
2022/10/05 09:02:11;;;;;;;;;;;;;;;;;;5065451;28;20346;-58
2022/10/05 09:04:37;;;;;;;;;;;;;;;;;;5065545;28;19965;-58
2022/10/05 09:07:03;;;;;;;;;;;;;;;;;;5064733;28;20345;-58
2022/10/05 09:09:29;;;;;;;;;;;;;;;;;;5063064;28;19970;-57
2022/10/05 09:11:55;;;;;;;;;;;;;;;;;;5065642;28;19972;-56
2022/10/05 09:14:21;;;;;;;;;;;;;;;;;;5064076;28;19929;-56
2022/10/05 09:16:47;;;;;;;;;;;;;;;;;;5065925;28;19924;-57
2022/10/05 09:19:13;;;;;;;;;;;;;;;;;;5065680;28;19962;-56
2022/10/05 09:22:01;;;;;;;1.20;1.10;;;;;;;;;;5064414;28;20027;-57
2022/10/05 09:24:47;;;;;;;4.50;1.20;;;;;;;;;;5056969;28;20084;-57
2022/10/05 09:27:14;;;;;;;1.30;1.20;;;;;;;;;;5046098;28;20430;-57
2022/10/05 09:29:40;;;;;;;1.50;1.40;;;;;;;;;;5064697;28;20055;-58
2022/10/05 09:32:15;;;;;;;3.05;2.10;;;;;;;;;;5064988;28;20040;-58
2022/10/05 09:35:14;;;;;;;1.73;1.63;;;;;;;;;;5064049;28;20049;-56
2022/10/05 09:37:43;;;;;;;3.90;1.88;;;;;;;;;;5016121;28;20549;-59
2022/10/05 09:40:21;;;;;;;3.08;2.20;;;;;;;;;;5064401;28;20075;-57
2022/10/05 09:43:06;;;;;;;2.50;2.28;;;;;;;;;;5063914;28;20412;-56
2022/10/05 09:45:38;;;;;;;3.83;2.30;;;;;;;;;;5062764;28;20077;-56
2022/10/05 09:48:12;;;;;;;2.28;1.90;;;;;;;;;;5045121;28;20048;-56
2022/10/05 09:51:04;;;;;;;2.80;1.80;;;;;;;;;;5044199;28;20041;-56
2022/10/05 09:53:49;;;;;;;2.20;1.83;;;;;;;;;;5045752;28;20049;-57
2022/10/05 09:56:18;;;;;;;1.88;1.77;;;;;;;;;;5060179;28;20056;-57
2022/10/05 09:59:05;;;;;;;2.50;2.00;;;;;;;;;;5068693;28;20217;-57
2022/10/05 10:01:46;;;;;;;4.93;2.45;;;;;;;;;;5067157;28;20397;-57
2022/10/05 10:04:31;;;;;;;2.90;2.37;;;;;;;;;;5050485;28;20033;-59
2022/10/05 10:07:15;;;;;;;6.00;2.00;;;;;;;;;;5067577;28;20495;-59
2022/10/05 10:09:41;;;;;;;;;;;;;;;;;;5067774;28;19972;-58
2022/10/05 10:12:25;;;;;;;2.53;2.10;;;;;;;;;;5067197;28;19924;-58
2022/10/05 10:15:09;;;;;;;2.00;1.90;;;;;;;;;;5065566;28;20040;-58
2022/10/05 10:17:49;;;;;;;2.50;2.30;;;;;;;;;;5066828;28;20080;-58
2022/10/05 10:20:15;;;;;;;4.30;1.98;;;;;;;;;;5059885;28;20123;-59
2022/10/05 10:22:41;;;;;;;;;;;;;;;;;;5067331;28;20457;-58
2022/10/05 10:25:26;;;;;;;3.30;1.80;;;;;;;;;;5068097;28;20189;-59
2022/10/05 10:27:53;;;;;;;1.80;1.55;;;;;;;;;;5068125;28;20228;-58
2022/10/05 10:30:24;;;;;;;5.07;2.10;;;;;;;;;;5066935;28;20578;-59
2022/10/05 10:32:50;;;;;;;3.45;1.92;;;;;;;;;;5066270;28;20048;-59
2022/10/05 10:35:25;;;;;;;3.97;2.40;;;;;;;;;;5067324;28;20048;-59
2022/10/05 10:38:01;;;;;;;4.75;2.40;;;;;;;;;;5067120;28;20052;-58
2022/10/05 10:40:38;;;;;;;2.10;1.90;;;;;;;;;;5067733;28;20052;-59
2022/10/05 10:43:07;;;;;;;2.17;2.00;;;;;;;;;;5067808;28;20048;-59
2022/10/05 10:45:33;;;;;;;;;;;;;;;;;;5067032;28;19921;-58
2022/10/05 10:47:59;;;;;;;;;;;;;;;;;;5068015;28;19924;-59
2022/10/05 10:50:26;;;;;;;;;;;;;;;;;;5068122;28;20440;-58
2022/10/05 10:52:52;;;;;;;;;;;;;;;;;;5067664;28;20023;-58
2022/10/05 10:55:18;;;;;;;;;;;;;;;;;;5067648;28;20050;-59
2022/10/05 10:57:44;;;;;;;;;;;;;;;;;;5067900;28;20216;-59
2022/10/05 11:00:33;;;;;;;3.85;2.00;;;;;;;;;;5066779;28;20036;-59
2022/10/05 11:03:18;;;;;;;2.33;2.13;;;;;;;;;;5029600;28;20056;-58
2022/10/05 11:05:45;;;;;;;;;;;;;;;;;;5065653;28;20048;-58
2022/10/05 11:08:12;;;;;;;;;;;;;;;;;;5067854;28;19920;-58
2022/10/05 11:10:38;;;;;;;;;;;;;;;;;;5068068;28;20287;-59
2022/10/05 11:13:16;;;;;;;2.30;2.10;;;;;;;;;;5066461;28;19928;-58
2022/10/05 11:15:42;;;;;;;;;;;;;;;;;;5067743;28;20381;-58
2022/10/05 11:18:07;;;;;;;;;;;;;;;;;;5067952;28;20048;-58
2022/10/05 11:20:33;;;;;;;;;;;;;;;;;;5066487;28;19924;-59
2022/10/05 11:22:59;;;;;;;;;;;;;;;;;;5067369;28;19935;-59
2022/10/05 11:25:26;;;;;;;;;;;;;;;;;;5067869;28;19950;-59
2022/10/05 11:27:52;;;;;;;;;;;;;;;;;;5067230;28;19932;-58
2022/10/05 11:30:18;;;;;;;;;;;;;;;;;;5067289;28;20702;-58
2022/10/05 11:32:44;;;;;;;;;;;;;;;;;;5067587;28;19924;-59
2022/10/05 11:35:10;;;;;;;;;;;;;;;;;;5066574;28;19956;-58
2022/10/05 11:37:36;;;;;;;;;;;;;;;;;;5066842;28;20307;-59
2022/10/05 11:40:01;;;;;;;;;;;;;;;;;;5066608;28;19971;-57
2022/10/05 11:42:27;;;;;;;;;;;;;;;;;;5066792;28;19924;-58
2022/10/05 11:44:53;;;;;;;;;;;;;;;;;;5067207;28;19932;-58
2022/10/05 11:47:19;;;;;;;;;;;;;;;;;;5066181;28;20454;-59
2022/10/05 11:49:45;;;;;;;;;;;;;;;;;;5067019;28;19928;-59
2022/10/05 11:52:11;;;;;;;;;;;;;;;;;;5066904;28;19931;-58
2022/10/05 11:54:37;;;;;;;;;;;;;;;;;;5065966;28;19929;-59
2022/10/05 11:57:03;;;;;;;;;;;;;;;;;;5066490;28;19935;-58
2022/10/05 11:59:29;;;;;;;;;;;;;;;;;;5066380;28;20019;-58
2022/10/05 12:01:55;;;;;;;;;;;;;;;;;;5066267;28;19924;-58
2022/10/05 12:04:20;;;;;;;;;;;;;;;;;;5066331;28;20410;-59
2022/10/05 12:06:46;;;;;;;;;;;;;;;;;;5066820;28;20422;-59
2022/10/05 12:09:12;;;;;;;;;;;;;;;;;;5065506;28;20341;-59
2022/10/05 12:11:38;;;;;;;;;;;;;;;;;;5066644;28;19990;-59
2022/10/05 12:14:04;;;;;;;;;;;;;;;;;;5048827;28;19925;-58
2022/10/05 12:16:30;;;;;;;;;;;;;;;;;;5065405;28;19939;-58
2022/10/05 12:18:56;;;;;;;;;;;;;;;;;;5066499;28;20028;-58
2022/10/05 12:21:22;;;;;;;;;;;;;;;;;;5066345;28;20325;-58
2022/10/05 12:23:48;;;;;;;;;;;;;;;;;;5065267;28;19925;-59
2022/10/05 12:26:14;;;;;;;;;;;;;;;;;;5066249;28;20267;-58
2022/10/05 12:28:40;;;;;;;;;;;;;;;;;;5066409;28;19929;-58
2022/10/05 12:31:06;;;;;;;;;;;;;;;;;;5065915;28;19974;-58
2022/10/05 12:33:32;;;;;;;;;;;;;;;;;;5065930;28;19973;-58
2022/10/05 12:35:58;;;;;;;;;;;;;;;;;;5066026;28;20170;-58
2022/10/05 12:38:25;;;;;;;;;;;;;;;;;;5065181;28;19932;-58
2022/10/05 12:40:51;;;;;;;;;;;;;;;;;;5066123;28;19936;-59
2022/10/05 12:43:17;;;;;;;;;;;;;;;;;;5065849;28;19925;-59
2022/10/05 12:45:44;;;;;;;;;;;;;;;;;;5066157;28;19929;-59
2022/10/05 12:48:11;;;;;;;;;;;;;;;;;;5066011;28;19963;-58
2022/10/05 12:50:37;;;;;;;;;;;;;;;;;;5047179;28;19932;-59
2022/10/05 12:53:02;;;;;;;;;;;;;;;;;;5065576;28;20316;-58
2022/10/05 12:55:28;;;;;;;;;;;;;;;;;;5065681;28;20406;-58
2022/10/05 12:57:54;;;;;;;;;;;;;;;;;;5065477;28;19925;-58
2022/10/05 13:00:20;;;;;;;;;;;;;;;;;;5065394;28;20440;-59
2022/10/05 13:02:46;;;;;;;;;;;;;;;;;;5065845;28;19928;-58
2022/10/05 13:05:12;;;;;;;;;;;;;;;;;;5064441;28;19924;-60
2022/10/05 13:07:38;;;;;;;;;;;;;;;;;;5065728;28;20226;-56
2022/10/05 13:10:04;;;;;;;;;;;;;;;;;;5065733;28;20369;-57
2022/10/05 13:12:34;;;;;;;;;;;;;;;;;;5064659;28;20183;-57
2022/10/05 13:15:00;;;;;;;;;;;;;;;;;;5065419;28;19975;-57
2022/10/05 13:17:26;;;;;;;;;;;;;;;;;;5065031;28;19994;-57
2022/10/05 13:19:52;;;;;;;;;;;;;;;;;;5064982;28;20089;-57
2022/10/05 13:22:18;;;;;;;;;;;;;;;;;;5065370;28;19925;-57
2022/10/05 13:24:44;;;;;;;;;;;;;;;;;;5061780;28;20040;-57
2022/10/05 13:27:12;;;;;;;;;;;;;;;;;;5062618;28;19936;-57
2022/10/05 13:29:38;;;;;;;;;;;;;;;;;;5062436;28;19955;-57
2022/10/05 13:32:04;;;;;;;;;;;;;;;;;;5057661;28;19925;-57
2022/10/05 13:34:30;;;;;;;;;;;;;;;;;;5063492;28;20110;-57
2022/10/05 13:36:56;;;;;;;;;;;;;;;;;;5047192;28;19974;-57
2022/10/05 13:39:22;;;;;;;;;;;;;;;;;;5065229;28;20383;-57
2022/10/05 13:41:48;;;;;;;;;;;;;;;;;;5063998;28;20023;-58
2022/10/05 13:44:14;;;;;;;;;;;;;;;;;;5064615;28;20012;-57
2022/10/05 13:46:41;;;;;;;;;;;;;;;;;;5064637;28;20046;-56
2022/10/05 13:49:07;;;;;;;;;;;;;;;;;;5063393;28;19928;-56
2022/10/05 13:51:33;;;;;;;;;;;;;;;;;;5057451;28;19979;-57
2022/10/05 13:53:59;;;;;;;;;;;;;;;;;;5059404;28;19967;-57
2022/10/05 13:56:25;;;;;;;;;;;;;;;;;;5064582;28;19931;-57
2022/10/05 13:58:51;;;;;;;;;;;;;;;;;;5047129;28;20338;-57
2022/10/05 14:01:17;;;;;;;;;;;;;;;;;;5064869;28;20440;-57
2022/10/05 14:03:42;;;;;;;;;;;;;;;;;;5047010;28;20354;-57
2022/10/05 14:06:08;;;;;;;;;;;;;;;;;;5065110;28;19929;-57
2022/10/05 14:08:34;;;;;;;;;;;;;;;;;;5063898;28;19932;-57
2022/10/05 14:11:01;;;;;;;;;;;;;;;;;;5065177;28;19936;-57
2022/10/05 14:13:27;;;;;;;;;;;;;;;;;;5064529;28;20397;-57
2022/10/05 14:15:53;;;;;;;;;;;;;;;;;;5064023;28;20019;-57
2022/10/05 14:18:19;;;;;;;;;;;;;;;;;;5058409;28;19978;-57
2022/10/05 14:20:45;;;;;;;;;;;;;;;;;;5063110;28;19975;-57
2022/10/05 14:23:12;;;;;;;;;;;;;;;;;;5047283;28;20298;-57
2022/10/05 14:25:38;;;;;;;;;;;;;;;;;;5050889;28;20391;-57
2022/10/05 14:28:04;;;;;;;;;;;;;;;;;;5057723;28;19931;-57
2022/10/05 14:30:30;;;;;;;;;;;;;;;;;;5055224;28;19967;-57
2022/10/05 14:32:56;;;;;;;;;;;;;;;;;;5058863;28;20383;-57
2022/10/05 14:35:22;;;;;;;;;;;;;;;;;;5052702;28;19982;-57
2022/10/05 14:37:49;;;;;;;;;;;;;;;;;;5057207;28;19975;-57
2022/10/05 14:40:15;;;;;;;;;;;;;;;;;;5062544;28;20525;-58
2022/10/05 14:42:41;;;;;;;;;;;;;;;;;;5055767;28;20050;-56
2022/10/05 14:45:07;;;;;;;;;;;;;;;;;;5066567;28;19924;-57
2022/10/05 14:47:34;;;;;;;;;;;;;;;;;;5067749;28;19924;-57
2022/10/05 14:50:16;;;;;;;;;;;;;;;;;;5067135;28;19928;-57
2022/10/05 14:52:42;;;;;;;;;;;;;;;;;;5058704;28;19924;-56
2022/10/05 14:55:08;;;;;;;;;;;;;;;;;;5062796;28;19951;-57
2022/10/05 14:57:34;;;;;;;;;;;;;;;;;;5065935;28;19925;-57
2022/10/05 15:00:00;;;;;;;;;;;;;;;;;;5055798;28;19939;-57
2022/10/05 15:02:26;;;;;;;;;;;;;;;;;;5065264;28;20311;-58
2022/10/05 15:04:52;;;;;;;;;;;;;;;;;;5060068;28;19924;-56
2022/10/05 15:07:17;;;;;;;;;;;;;;;;;;5067659;28;19932;-57
2022/10/05 15:09:43;;;;;;;;;;;;;;;;;;5067944;28;19964;-58
2022/10/05 15:12:09;;;;;;;;;;;;;;;;;;5066883;28;20395;-57
2022/10/05 15:14:35;;;;;;;;;;;;;;;;;;5065971;28;19934;-57
2022/10/05 15:17:01;;;;;;;;;;;;;;;;;;5058636;28;19924;-57
2022/10/05 15:19:29;;;;;;;;;;;;;;;;;;5058929;28;20406;-58
2022/10/05 15:21:55;;;;;;;;;;;;;;;;;;5051947;28;19991;-58
2022/10/05 15:24:21;;;;;;;;;;;;;;;;;;5064996;28;19971;-58
2022/10/05 15:26:47;;;;;;;;;;;;;;;;;;5059478;28;20025;-57
2022/10/05 15:29:13;;;;;;;;;;;;;;;;;;5065641;28;19924;-58
2022/10/05 15:31:39;;;;;;;;;;;;;;;;;;5062128;28;19951;-57
2022/10/05 15:34:06;;;;;;;;;;;;;;;;;;5060123;28;19933;-57
2022/10/05 15:36:34;;;;;;;;;;;;;;;;;;5060190;28;19929;-57
2022/10/05 15:39:01;;;;;;;;;;;;;;;;;;5056946;28;19935;-57
2022/10/05 15:41:28;;;;;;;;;;;;;;;;;;5064321;28;20432;-57
2022/10/05 15:43:54;;;;;;;;;;;;;;;;;;5058490;28;20378;-57
2022/10/05 15:46:20;;;;;;;;;;;;;;;;;;5064425;28;19928;-57
2022/10/05 15:48:47;;;;;;;;;;;;;;;;;;5057065;28;19928;-57
2022/10/05 15:51:15;;;;;;;;;;;;;;;;;;5048781;28;19955;-57
2022/10/05 15:53:41;;;;;;;;;;;;;;;;;;5056078;28;20305;-56
2022/10/05 15:56:07;;;;;;;;;;;;;;;;;;5040058;28;19935;-57
2022/10/05 15:58:34;;;;;;;;;;;;;;;;;;5050783;28;19925;-57
2022/10/05 16:01:00;;;;;;;;;;;;;;;;;;5049925;28;20115;-57
2022/10/05 16:03:26;;;;;;;;;;;;;;;;;;5059249;28;19931;-56
2022/10/05 16:08:53;;;;;;;;;;;;;;;;;;5050261;28;19924;-57
2022/10/05 16:11:19;;;;;;;;;;;;;;;;;;5058329;28;19954;-57
2022/10/05 16:13:45;;;;;;;;;;;;;;;;;;5065423;28;20423;-57
2022/10/05 16:16:14;;;;;;;;;;;;;;;;;;5056871;28;19931;-57
2022/10/05 16:18:40;;;;;;;;;;;;;;;;;;5050098;28;19929;-57
2022/10/05 16:21:08;;;;;;;;;;;;;;;;;;5063545;28;19939;-57
2022/10/05 16:23:35;;;;;;;;;;;;;;;;;;5054775;28;19928;-57
2022/10/05 16:26:01;;;;;;;;;;;;;;;;;;5054334;28;19965;-57
2022/10/05 16:28:30;;;;;;;;;;;;;;;;;;5050691;28;19925;-57
2022/10/05 16:30:57;;;;;;;;;;;;;;;;;;5053957;28;19929;-57
2022/10/05 16:33:25;;;;;;;;;;;;;;;;;;5054070;28;19972;-57
2022/10/05 16:35:52;;;;;;;;;;;;;;;;;;5061666;28;19928;-57
2022/10/05 16:38:18;;;;;;;;;;;;;;;;;;5051807;28;19937;-56